sensor_id;sensor_type;location;lat;lon;timestamp;temperature;humidity
25945;SHT31;13742;49.306;8.636;2023-12-14T00:00:19;7.58;94.28
25945;SHT31;13742;49.306;8.636;2023-12-14T00:01:18;7.58;94.30
25945;SHT31;13742;49.306;8.636;2023-12-14T00:02:18;7.61;94.35
25945;SHT31;13742;49.306;8.636;2023-12-14T00:03:18;7.59;94.33
25945;SHT31;13742;49.306;8.636;2023-12-14T00:04:18;7.58;94.27
25945;SHT31;13742;49.306;8.636;2023-12-14T00:05:18;7.58;94.20
25945;SHT31;13742;49.306;8.636;2023-12-14T00:06:18;7.56;94.17
25945;SHT31;13742;49.306;8.636;2023-12-14T00:07:18;7.55;94.16
25945;SHT31;13742;49.306;8.636;2023-12-14T00:08:18;7.53;94.14
25945;SHT31;13742;49.306;8.636;2023-12-14T00:09:18;7.55;94.14
25945;SHT31;13742;49.306;8.636;2023-12-14T00:10:18;7.56;94.18
25945;SHT31;13742;49.306;8.636;2023-12-14T00:11:18;7.52;94.18
25945;SHT31;13742;49.306;8.636;2023-12-14T00:12:18;7.53;94.17
25945;SHT31;13742;49.306;8.636;2023-12-14T00:13:18;7.53;94.18
25945;SHT31;13742;49.306;8.636;2023-12-14T00:14:18;7.53;94.23
25945;SHT31;13742;49.306;8.636;2023-12-14T00:15:18;7.52;94.20
25945;SHT31;13742;49.306;8.636;2023-12-14T00:16:18;7.51;94.16
25945;SHT31;13742;49.306;8.636;2023-12-14T00:17:18;7.52;94.18
25945;SHT31;13742;49.306;8.636;2023-12-14T00:18:18;7.51;94.16
25945;SHT31;13742;49.306;8.636;2023-12-14T00:19:18;7.52;94.13
25945;SHT31;13742;49.306;8.636;2023-12-14T00:20:18;7.52;94.13
25945;SHT31;13742;49.306;8.636;2023-12-14T00:21:18;7.49;94.15
25945;SHT31;13742;49.306;8.636;2023-12-14T00:22:18;7.49;94.13
25945;SHT31;13742;49.306;8.636;2023-12-14T00:23:18;7.48;94.12
25945;SHT31;13742;49.306;8.636;2023-12-14T00:24:18;7.48;94.14
25945;SHT31;13742;49.306;8.636;2023-12-14T00:25:18;7.46;94.14
25945;SHT31;13742;49.306;8.636;2023-12-14T00:26:18;7.46;94.22
25945;SHT31;13742;49.306;8.636;2023-12-14T00:27:18;7.51;94.20
25945;SHT31;13742;49.306;8.636;2023-12-14T00:28:18;7.48;94.20
25945;SHT31;13742;49.306;8.636;2023-12-14T00:29:18;7.49;94.23
25945;SHT31;13742;49.306;8.636;2023-12-14T00:30:18;7.49;94.25
25945;SHT31;13742;49.306;8.636;2023-12-14T00:31:18;7.48;94.23
25945;SHT31;13742;49.306;8.636;2023-12-14T00:32:18;7.46;94.25
25945;SHT31;13742;49.306;8.636;2023-12-14T00:33:18;7.49;94.21
25945;SHT31;13742;49.306;8.636;2023-12-14T00:34:18;7.51;94.23
25945;SHT31;13742;49.306;8.636;2023-12-14T00:35:18;7.48;94.21
25945;SHT31;13742;49.306;8.636;2023-12-14T00:36:18;7.48;94.23
25945;SHT31;13742;49.306;8.636;2023-12-14T00:37:18;7.48;94.25
25945;SHT31;13742;49.306;8.636;2023-12-14T00:38:18;7.48;94.22
25945;SHT31;13742;49.306;8.636;2023-12-14T00:39:18;7.46;94.18
25945;SHT31;13742;49.306;8.636;2023-12-14T00:40:18;7.48;94.21
25945;SHT31;13742;49.306;8.636;2023-12-14T00:41:18;7.45;94.20
25945;SHT31;13742;49.306;8.636;2023-12-14T00:42:18;7.49;94.22
25945;SHT31;13742;49.306;8.636;2023-12-14T00:43:18;7.46;94.16
25945;SHT31;13742;49.306;8.636;2023-12-14T00:44:18;7.46;94.15
25945;SHT31;13742;49.306;8.636;2023-12-14T00:45:18;7.44;94.15
25945;SHT31;13742;49.306;8.636;2023-12-14T00:46:18;7.45;94.13
25945;SHT31;13742;49.306;8.636;2023-12-14T00:47:18;7.45;94.13
25945;SHT31;13742;49.306;8.636;2023-12-14T00:48:18;7.46;94.14
25945;SHT31;13742;49.306;8.636;2023-12-14T00:49:19;7.44;94.12
25945;SHT31;13742;49.306;8.636;2023-12-14T00:50:18;7.45;94.13
25945;SHT31;13742;49.306;8.636;2023-12-14T00:51:18;7.46;94.15
25945;SHT31;13742;49.306;8.636;2023-12-14T00:52:18;7.44;94.13
25945;SHT31;13742;49.306;8.636;2023-12-14T00:53:18;7.45;94.12
25945;SHT31;13742;49.306;8.636;2023-12-14T00:54:18;7.44;94.08
25945;SHT31;13742;49.306;8.636;2023-12-14T00:55:18;7.42;94.06
25945;SHT31;13742;49.306;8.636;2023-12-14T00:56:18;7.44;94.08
25945;SHT31;13742;49.306;8.636;2023-12-14T00:57:18;7.41;94.07
25945;SHT31;13742;49.306;8.636;2023-12-14T00:58:18;7.39;94.10
25945;SHT31;13742;49.306;8.636;2023-12-14T00:59:18;7.41;94.09
25945;SHT31;13742;49.306;8.636;2023-12-14T01:00:18;7.42;94.09
25945;SHT31;13742;49.306;8.636;2023-12-14T01:01:18;7.39;94.03
25945;SHT31;13742;49.306;8.636;2023-12-14T01:02:18;7.39;94.10
25945;SHT31;13742;49.306;8.636;2023-12-14T01:03:18;7.41;94.12
25945;SHT31;13742;49.306;8.636;2023-12-14T01:04:18;7.37;94.12
25945;SHT31;13742;49.306;8.636;2023-12-14T01:05:18;7.41;94.14
25945;SHT31;13742;49.306;8.636;2023-12-14T01:06:18;7.39;94.15
25945;SHT31;13742;49.306;8.636;2023-12-14T01:07:18;7.41;94.13
25945;SHT31;13742;49.306;8.636;2023-12-14T01:08:18;7.39;94.15
25945;SHT31;13742;49.306;8.636;2023-12-14T01:09:18;7.41;94.16
25945;SHT31;13742;49.306;8.636;2023-12-14T01:10:18;7.38;94.08
25945;SHT31;13742;49.306;8.636;2023-12-14T01:11:18;7.41;94.10
25945;SHT31;13742;49.306;8.636;2023-12-14T01:12:18;7.39;94.13
25945;SHT31;13742;49.306;8.636;2023-12-14T01:13:18;7.39;94.12
25945;SHT31;13742;49.306;8.636;2023-12-14T01:14:18;7.37;94.14
25945;SHT31;13742;49.306;8.636;2023-12-14T01:15:18;7.42;94.13
25945;SHT31;13742;49.306;8.636;2023-12-14T01:16:18;7.38;94.08
25945;SHT31;13742;49.306;8.636;2023-12-14T01:17:18;7.35;94.10
25945;SHT31;13742;49.306;8.636;2023-12-14T01:18:18;7.38;94.09
25945;SHT31;13742;49.306;8.636;2023-12-14T01:19:18;7.38;94.12
25945;SHT31;13742;49.306;8.636;2023-12-14T01:20:18;7.38;94.08
25945;SHT31;13742;49.306;8.636;2023-12-14T01:21:18;7.37;94.10
25945;SHT31;13742;49.306;8.636;2023-12-14T01:22:18;7.37;94.07
25945;SHT31;13742;49.306;8.636;2023-12-14T01:23:18;7.38;94.11
25945;SHT31;13742;49.306;8.636;2023-12-14T01:24:18;7.38;94.18
25945;SHT31;13742;49.306;8.636;2023-12-14T01:25:18;7.39;94.15
25945;SHT31;13742;49.306;8.636;2023-12-14T01:26:18;7.35;94.17
25945;SHT31;13742;49.306;8.636;2023-12-14T01:27:18;7.37;94.18
25945;SHT31;13742;49.306;8.636;2023-12-14T01:28:18;7.38;94.13
25945;SHT31;13742;49.306;8.636;2023-12-14T01:29:18;7.37;94.16
25945;SHT31;13742;49.306;8.636;2023-12-14T01:30:18;7.37;94.15
25945;SHT31;13742;49.306;8.636;2023-12-14T01:31:18;7.35;94.15
25945;SHT31;13742;49.306;8.636;2023-12-14T01:32:19;7.38;94.18
25945;SHT31;13742;49.306;8.636;2023-12-14T01:33:19;7.38;94.19
25945;SHT31;13742;49.306;8.636;2023-12-14T01:34:18;7.38;94.20
25945;SHT31;13742;49.306;8.636;2023-12-14T01:35:18;7.39;94.20
25945;SHT31;13742;49.306;8.636;2023-12-14T01:36:22;7.39;94.21
25945;SHT31;13742;49.306;8.636;2023-12-14T01:37:18;7.39;94.20
25945;SHT31;13742;49.306;8.636;2023-12-14T01:38:18;7.41;94.20
25945;SHT31;13742;49.306;8.636;2023-12-14T01:39:18;7.41;94.21
25945;SHT31;13742;49.306;8.636;2023-12-14T01:40:21;7.41;94.20
25945;SHT31;13742;49.306;8.636;2023-12-14T01:41:18;7.42;94.23
25945;SHT31;13742;49.306;8.636;2023-12-14T01:42:18;7.39;94.17
25945;SHT31;13742;49.306;8.636;2023-12-14T01:43:18;7.41;94.19
25945;SHT31;13742;49.306;8.636;2023-12-14T01:44:18;7.41;94.15
25945;SHT31;13742;49.306;8.636;2023-12-14T01:45:18;7.41;94.18
25945;SHT31;13742;49.306;8.636;2023-12-14T01:46:18;7.42;94.21
25945;SHT31;13742;49.306;8.636;2023-12-14T01:47:18;7.42;94.23
25945;SHT31;13742;49.306;8.636;2023-12-14T01:48:18;7.42;94.20
25945;SHT31;13742;49.306;8.636;2023-12-14T01:49:18;7.41;94.19
25945;SHT31;13742;49.306;8.636;2023-12-14T01:50:18;7.44;94.21
25945;SHT31;13742;49.306;8.636;2023-12-14T01:51:18;7.42;94.21
25945;SHT31;13742;49.306;8.636;2023-12-14T01:52:18;7.44;94.21
25945;SHT31;13742;49.306;8.636;2023-12-14T01:53:18;7.44;94.20
25945;SHT31;13742;49.306;8.636;2023-12-14T01:54:18;7.42;94.17
25945;SHT31;13742;49.306;8.636;2023-12-14T01:55:18;7.44;94.16
25945;SHT31;13742;49.306;8.636;2023-12-14T01:56:18;7.42;94.19
25945;SHT31;13742;49.306;8.636;2023-12-14T01:57:18;7.42;94.22
25945;SHT31;13742;49.306;8.636;2023-12-14T01:58:18;7.45;94.19
25945;SHT31;13742;49.306;8.636;2023-12-14T01:59:18;7.45;94.22
25945;SHT31;13742;49.306;8.636;2023-12-14T02:01:23;7.44;94.21
25945;SHT31;13742;49.306;8.636;2023-12-14T02:02:18;7.45;94.22
25945;SHT31;13742;49.306;8.636;2023-12-14T02:03:18;7.44;94.21
25945;SHT31;13742;49.306;8.636;2023-12-14T02:04:18;7.44;94.23
25945;SHT31;13742;49.306;8.636;2023-12-14T02:05:18;7.42;94.30
25945;SHT31;13742;49.306;8.636;2023-12-14T02:06:18;7.45;94.30
25945;SHT31;13742;49.306;8.636;2023-12-14T02:07:18;7.44;94.26
25945;SHT31;13742;49.306;8.636;2023-12-14T02:08:18;7.46;94.29
25945;SHT31;13742;49.306;8.636;2023-12-14T02:09:18;7.46;94.31
25945;SHT31;13742;49.306;8.636;2023-12-14T02:10:18;7.45;94.27
25945;SHT31;13742;49.306;8.636;2023-12-14T02:11:18;7.44;94.25
25945;SHT31;13742;49.306;8.636;2023-12-14T02:12:18;7.46;94.20
25945;SHT31;13742;49.306;8.636;2023-12-14T02:13:18;7.46;94.20
25945;SHT31;13742;49.306;8.636;2023-12-14T02:14:21;7.44;94.19
25945;SHT31;13742;49.306;8.636;2023-12-14T02:15:18;7.44;94.23
25945;SHT31;13742;49.306;8.636;2023-12-14T02:16:18;7.48;94.23
25945;SHT31;13742;49.306;8.636;2023-12-14T02:17:18;7.44;94.19
25945;SHT31;13742;49.306;8.636;2023-12-14T02:18:18;7.48;94.25
25945;SHT31;13742;49.306;8.636;2023-12-14T02:19:18;7.46;94.26
25945;SHT31;13742;49.306;8.636;2023-12-14T02:20:18;7.45;94.29
25945;SHT31;13742;49.306;8.636;2023-12-14T02:21:19;7.45;94.24
25945;SHT31;13742;49.306;8.636;2023-12-14T02:22:18;7.45;94.29
25945;SHT31;13742;49.306;8.636;2023-12-14T02:23:18;7.46;94.23
25945;SHT31;13742;49.306;8.636;2023-12-14T02:24:18;7.44;94.27
25945;SHT31;13742;49.306;8.636;2023-12-14T02:25:19;7.46;94.25
25945;SHT31;13742;49.306;8.636;2023-12-14T02:26:18;7.45;94.33
25945;SHT31;13742;49.306;8.636;2023-12-14T02:27:18;7.44;94.38
25945;SHT31;13742;49.306;8.636;2023-12-14T02:28:18;7.46;94.39
25945;SHT31;13742;49.306;8.636;2023-12-14T02:29:18;7.48;94.40
25945;SHT31;13742;49.306;8.636;2023-12-14T02:30:18;7.48;94.37
25945;SHT31;13742;49.306;8.636;2023-12-14T02:31:19;7.46;94.42
25945;SHT31;13742;49.306;8.636;2023-12-14T02:32:18;7.48;94.37
25945;SHT31;13742;49.306;8.636;2023-12-14T02:33:18;7.48;94.63
25945;SHT31;13742;49.306;8.636;2023-12-14T02:34:19;7.49;94.51
25945;SHT31;13742;49.306;8.636;2023-12-14T02:35:18;7.48;94.44
25945;SHT31;13742;49.306;8.636;2023-12-14T02:36:18;7.49;94.48
25945;SHT31;13742;49.306;8.636;2023-12-14T02:37:18;7.48;94.40
25945;SHT31;13742;49.306;8.636;2023-12-14T02:38:18;7.48;94.40
25945;SHT31;13742;49.306;8.636;2023-12-14T02:39:18;7.48;94.43
25945;SHT31;13742;49.306;8.636;2023-12-14T02:40:18;7.48;94.68
25945;SHT31;13742;49.306;8.636;2023-12-14T02:41:18;7.51;94.61
25945;SHT31;13742;49.306;8.636;2023-12-14T02:42:18;7.48;94.61
25945;SHT31;13742;49.306;8.636;2023-12-14T02:43:18;7.49;94.50
25945;SHT31;13742;49.306;8.636;2023-12-14T02:44:18;7.51;94.45
25945;SHT31;13742;49.306;8.636;2023-12-14T02:45:18;7.51;94.48
25945;SHT31;13742;49.306;8.636;2023-12-14T02:46:18;7.51;94.45
25945;SHT31;13742;49.306;8.636;2023-12-14T02:47:18;7.52;94.55
25945;SHT31;13742;49.306;8.636;2023-12-14T02:48:18;7.51;94.47
25945;SHT31;13742;49.306;8.636;2023-12-14T02:49:18;7.51;94.47
25945;SHT31;13742;49.306;8.636;2023-12-14T02:50:18;7.49;94.46
25945;SHT31;13742;49.306;8.636;2023-12-14T02:51:18;7.52;94.51
25945;SHT31;13742;49.306;8.636;2023-12-14T02:52:18;7.52;94.58
25945;SHT31;13742;49.306;8.636;2023-12-14T02:53:18;7.49;94.55
25945;SHT31;13742;49.306;8.636;2023-12-14T02:54:18;7.52;94.51
25945;SHT31;13742;49.306;8.636;2023-12-14T02:55:18;7.51;94.55
25945;SHT31;13742;49.306;8.636;2023-12-14T02:56:18;7.52;94.53
25945;SHT31;13742;49.306;8.636;2023-12-14T02:57:18;7.51;94.53
25945;SHT31;13742;49.306;8.636;2023-12-14T02:58:18;7.52;94.54
25945;SHT31;13742;49.306;8.636;2023-12-14T02:59:18;7.49;94.59
25945;SHT31;13742;49.306;8.636;2023-12-14T03:00:18;7.49;94.55
25945;SHT31;13742;49.306;8.636;2023-12-14T03:01:19;7.53;94.49
25945;SHT31;13742;49.306;8.636;2023-12-14T03:02:18;7.51;94.52
25945;SHT31;13742;49.306;8.636;2023-12-14T03:03:18;7.51;94.47
25945;SHT31;13742;49.306;8.636;2023-12-14T03:04:18;7.51;94.54
25945;SHT31;13742;49.306;8.636;2023-12-14T03:05:18;7.51;94.55
25945;SHT31;13742;49.306;8.636;2023-12-14T03:06:18;7.51;94.56
25945;SHT31;13742;49.306;8.636;2023-12-14T03:07:19;7.51;94.55
25945;SHT31;13742;49.306;8.636;2023-12-14T03:08:18;7.49;94.46
25945;SHT31;13742;49.306;8.636;2023-12-14T03:09:19;7.49;94.53
25945;SHT31;13742;49.306;8.636;2023-12-14T03:10:18;7.51;94.58
25945;SHT31;13742;49.306;8.636;2023-12-14T03:11:24;7.51;94.57
25945;SHT31;13742;49.306;8.636;2023-12-14T03:12:18;7.49;94.56
25945;SHT31;13742;49.306;8.636;2023-12-14T03:13:18;7.51;94.58
25945;SHT31;13742;49.306;8.636;2023-12-14T03:14:18;7.52;94.60
25945;SHT31;13742;49.306;8.636;2023-12-14T03:15:18;7.51;94.62
25945;SHT31;13742;49.306;8.636;2023-12-14T03:16:18;7.52;94.63
25945;SHT31;13742;49.306;8.636;2023-12-14T03:17:18;7.51;94.67
25945;SHT31;13742;49.306;8.636;2023-12-14T03:18:18;7.51;94.63
25945;SHT31;13742;49.306;8.636;2023-12-14T03:19:18;7.51;94.62
25945;SHT31;13742;49.306;8.636;2023-12-14T03:20:18;7.51;94.62
25945;SHT31;13742;49.306;8.636;2023-12-14T03:21:18;7.52;94.61
25945;SHT31;13742;49.306;8.636;2023-12-14T03:22:18;7.51;94.57
25945;SHT31;13742;49.306;8.636;2023-12-14T03:23:18;7.49;94.53
25945;SHT31;13742;49.306;8.636;2023-12-14T03:24:18;7.49;94.55
25945;SHT31;13742;49.306;8.636;2023-12-14T03:25:18;7.51;94.57
25945;SHT31;13742;49.306;8.636;2023-12-14T03:26:18;7.48;94.53
25945;SHT31;13742;49.306;8.636;2023-12-14T03:27:18;7.48;94.59
25945;SHT31;13742;49.306;8.636;2023-12-14T03:28:18;7.51;94.62
25945;SHT31;13742;49.306;8.636;2023-12-14T03:29:19;7.48;94.58
25945;SHT31;13742;49.306;8.636;2023-12-14T03:30:18;7.48;94.58
25945;SHT31;13742;49.306;8.636;2023-12-14T03:31:18;7.49;94.58
25945;SHT31;13742;49.306;8.636;2023-12-14T03:32:18;7.48;94.57
25945;SHT31;13742;49.306;8.636;2023-12-14T03:33:18;7.49;94.59
25945;SHT31;13742;49.306;8.636;2023-12-14T03:34:18;7.48;94.56
25945;SHT31;13742;49.306;8.636;2023-12-14T03:35:18;7.46;94.47
25945;SHT31;13742;49.306;8.636;2023-12-14T03:36:18;7.46;94.55
25945;SHT31;13742;49.306;8.636;2023-12-14T03:37:18;7.48;94.58
25945;SHT31;13742;49.306;8.636;2023-12-14T03:38:18;7.49;94.85
25945;SHT31;13742;49.306;8.636;2023-12-14T03:39:18;7.51;94.87
25945;SHT31;13742;49.306;8.636;2023-12-14T03:40:18;7.49;94.85
25945;SHT31;13742;49.306;8.636;2023-12-14T03:41:18;7.51;94.97
25945;SHT31;13742;49.306;8.636;2023-12-14T03:42:18;7.51;94.91
25945;SHT31;13742;49.306;8.636;2023-12-14T03:43:18;7.52;94.90
25945;SHT31;13742;49.306;8.636;2023-12-14T03:44:18;7.49;94.87
25945;SHT31;13742;49.306;8.636;2023-12-14T03:45:18;7.49;94.91
25945;SHT31;13742;49.306;8.636;2023-12-14T03:46:18;7.46;94.86
25945;SHT31;13742;49.306;8.636;2023-12-14T03:47:18;7.48;94.80
25945;SHT31;13742;49.306;8.636;2023-12-14T03:48:18;7.48;94.83
25945;SHT31;13742;49.306;8.636;2023-12-14T03:49:18;7.49;95.07
25945;SHT31;13742;49.306;8.636;2023-12-14T03:50:18;7.51;95.06
25945;SHT31;13742;49.306;8.636;2023-12-14T03:51:19;7.48;94.96
25945;SHT31;13742;49.306;8.636;2023-12-14T03:52:18;7.46;94.86
25945;SHT31;13742;49.306;8.636;2023-12-14T03:53:18;7.48;94.97
25945;SHT31;13742;49.306;8.636;2023-12-14T03:54:18;7.48;94.99
25945;SHT31;13742;49.306;8.636;2023-12-14T03:55:18;7.48;94.96
25945;SHT31;13742;49.306;8.636;2023-12-14T03:56:18;7.49;95.01
25945;SHT31;13742;49.306;8.636;2023-12-14T03:57:18;7.48;94.88
25945;SHT31;13742;49.306;8.636;2023-12-14T03:58:18;7.48;94.96
25945;SHT31;13742;49.306;8.636;2023-12-14T03:59:18;7.49;94.93
25945;SHT31;13742;49.306;8.636;2023-12-14T04:00:18;7.48;94.79
25945;SHT31;13742;49.306;8.636;2023-12-14T04:01:19;7.48;94.78
25945;SHT31;13742;49.306;8.636;2023-12-14T04:02:18;7.46;94.74
25945;SHT31;13742;49.306;8.636;2023-12-14T04:03:18;7.45;94.69
25945;SHT31;13742;49.306;8.636;2023-12-14T04:04:18;7.46;94.64
25945;SHT31;13742;49.306;8.636;2023-12-14T04:05:18;7.44;94.66
25945;SHT31;13742;49.306;8.636;2023-12-14T04:06:18;7.46;94.89
25945;SHT31;13742;49.306;8.636;2023-12-14T04:07:18;7.45;95.06
25945;SHT31;13742;49.306;8.636;2023-12-14T04:08:18;7.48;95.11
25945;SHT31;13742;49.306;8.636;2023-12-14T04:09:18;7.46;95.13
25945;SHT31;13742;49.306;8.636;2023-12-14T04:10:18;7.49;95.17
25945;SHT31;13742;49.306;8.636;2023-12-14T04:11:18;7.48;95.05
25945;SHT31;13742;49.306;8.636;2023-12-14T04:12:18;7.45;95.09
25945;SHT31;13742;49.306;8.636;2023-12-14T04:13:18;7.46;95.07
25945;SHT31;13742;49.306;8.636;2023-12-14T04:14:18;7.45;95.07
25945;SHT31;13742;49.306;8.636;2023-12-14T04:15:18;7.48;95.21
25945;SHT31;13742;49.306;8.636;2023-12-14T04:16:20;7.48;95.09
25945;SHT31;13742;49.306;8.636;2023-12-14T04:17:18;7.46;95.07
25945;SHT31;13742;49.306;8.636;2023-12-14T04:18:18;7.48;95.10
25945;SHT31;13742;49.306;8.636;2023-12-14T04:19:18;7.46;95.09
25945;SHT31;13742;49.306;8.636;2023-12-14T04:20:18;7.48;95.06
25945;SHT31;13742;49.306;8.636;2023-12-14T04:21:18;7.48;95.05
25945;SHT31;13742;49.306;8.636;2023-12-14T04:22:18;7.46;95.00
25945;SHT31;13742;49.306;8.636;2023-12-14T04:23:18;7.49;95.05
25945;SHT31;13742;49.306;8.636;2023-12-14T04:24:18;7.46;94.99
25945;SHT31;13742;49.306;8.636;2023-12-14T04:25:18;7.48;95.13
25945;SHT31;13742;49.306;8.636;2023-12-14T04:26:18;7.48;95.17
25945;SHT31;13742;49.306;8.636;2023-12-14T04:27:18;7.49;95.24
25945;SHT31;13742;49.306;8.636;2023-12-14T04:28:18;7.49;95.19
25945;SHT31;13742;49.306;8.636;2023-12-14T04:29:18;7.51;95.28
25945;SHT31;13742;49.306;8.636;2023-12-14T04:30:18;7.49;95.30
25945;SHT31;13742;49.306;8.636;2023-12-14T04:31:18;7.52;95.30
25945;SHT31;13742;49.306;8.636;2023-12-14T04:32:18;7.51;95.19
25945;SHT31;13742;49.306;8.636;2023-12-14T04:33:18;7.49;95.14
25945;SHT31;13742;49.306;8.636;2023-12-14T04:34:19;7.51;95.15
25945;SHT31;13742;49.306;8.636;2023-12-14T04:35:18;7.51;95.29
25945;SHT31;13742;49.306;8.636;2023-12-14T04:36:18;7.52;95.25
25945;SHT31;13742;49.306;8.636;2023-12-14T04:37:18;7.51;95.36
25945;SHT31;13742;49.306;8.636;2023-12-14T04:38:18;7.51;95.29
25945;SHT31;13742;49.306;8.636;2023-12-14T04:39:18;7.51;95.19
25945;SHT31;13742;49.306;8.636;2023-12-14T04:40:19;7.51;95.17
25945;SHT31;13742;49.306;8.636;2023-12-14T04:41:18;7.51;95.13
25945;SHT31;13742;49.306;8.636;2023-12-14T04:42:18;7.48;95.13
25945;SHT31;13742;49.306;8.636;2023-12-14T04:43:18;7.49;95.15
25945;SHT31;13742;49.306;8.636;2023-12-14T04:44:18;7.51;95.27
25945;SHT31;13742;49.306;8.636;2023-12-14T04:45:19;7.51;95.25
25945;SHT31;13742;49.306;8.636;2023-12-14T04:46:18;7.49;95.24
25945;SHT31;13742;49.306;8.636;2023-12-14T04:47:18;7.49;95.11
25945;SHT31;13742;49.306;8.636;2023-12-14T04:48:18;7.52;95.10
25945;SHT31;13742;49.306;8.636;2023-12-14T04:49:18;7.48;95.13
25945;SHT31;13742;49.306;8.636;2023-12-14T04:50:18;7.49;95.11
25945;SHT31;13742;49.306;8.636;2023-12-14T04:51:18;7.51;95.10
25945;SHT31;13742;49.306;8.636;2023-12-14T04:52:18;7.52;95.11
25945;SHT31;13742;49.306;8.636;2023-12-14T04:53:18;7.51;95.10
25945;SHT31;13742;49.306;8.636;2023-12-14T04:54:18;7.49;95.12
25945;SHT31;13742;49.306;8.636;2023-12-14T04:55:18;7.48;95.09
25945;SHT31;13742;49.306;8.636;2023-12-14T04:56:18;7.51;95.09
25945;SHT31;13742;49.306;8.636;2023-12-14T04:57:18;7.48;95.09
25945;SHT31;13742;49.306;8.636;2023-12-14T04:58:18;7.51;95.06
25945;SHT31;13742;49.306;8.636;2023-12-14T04:59:18;7.51;95.03
25945;SHT31;13742;49.306;8.636;2023-12-14T05:00:18;7.51;95.10
25945;SHT31;13742;49.306;8.636;2023-12-14T05:01:18;7.49;95.04
25945;SHT31;13742;49.306;8.636;2023-12-14T05:02:18;7.49;94.97
25945;SHT31;13742;49.306;8.636;2023-12-14T05:03:18;7.48;95.03
25945;SHT31;13742;49.306;8.636;2023-12-14T05:04:18;7.48;95.02
25945;SHT31;13742;49.306;8.636;2023-12-14T05:05:18;7.48;95.05
25945;SHT31;13742;49.306;8.636;2023-12-14T05:06:18;7.46;95.08
25945;SHT31;13742;49.306;8.636;2023-12-14T05:07:18;7.48;95.05
25945;SHT31;13742;49.306;8.636;2023-12-14T05:08:18;7.51;95.11
25945;SHT31;13742;49.306;8.636;2023-12-14T05:09:18;7.46;95.08
25945;SHT31;13742;49.306;8.636;2023-12-14T05:10:18;7.48;95.08
25945;SHT31;13742;49.306;8.636;2023-12-14T05:11:18;7.44;95.03
25945;SHT31;13742;49.306;8.636;2023-12-14T05:12:18;7.46;95.07
25945;SHT31;13742;49.306;8.636;2023-12-14T05:13:18;7.46;95.15
25945;SHT31;13742;49.306;8.636;2023-12-14T05:14:18;7.46;95.08
25945;SHT31;13742;49.306;8.636;2023-12-14T05:15:18;7.44;95.10
25945;SHT31;13742;49.306;8.636;2023-12-14T05:16:18;7.45;95.04
25945;SHT31;13742;49.306;8.636;2023-12-14T05:17:18;7.45;95.09
25945;SHT31;13742;49.306;8.636;2023-12-14T05:18:18;7.44;95.07
25945;SHT31;13742;49.306;8.636;2023-12-14T05:19:18;7.44;95.06
25945;SHT31;13742;49.306;8.636;2023-12-14T05:20:18;7.48;95.03
25945;SHT31;13742;49.306;8.636;2023-12-14T05:21:18;7.46;95.12
25945;SHT31;13742;49.306;8.636;2023-12-14T05:22:18;7.44;95.31
25945;SHT31;13742;49.306;8.636;2023-12-14T05:23:18;7.48;95.30
25945;SHT31;13742;49.306;8.636;2023-12-14T05:24:18;7.42;95.20
25945;SHT31;13742;49.306;8.636;2023-12-14T05:25:18;7.42;95.19
25945;SHT31;13742;49.306;8.636;2023-12-14T05:26:19;7.42;95.14
25945;SHT31;13742;49.306;8.636;2023-12-14T05:27:18;7.41;95.03
25945;SHT31;13742;49.306;8.636;2023-12-14T05:28:18;7.39;95.03
25945;SHT31;13742;49.306;8.636;2023-12-14T05:29:18;7.39;95.12
25945;SHT31;13742;49.306;8.636;2023-12-14T05:30:18;7.41;95.20
25945;SHT31;13742;49.306;8.636;2023-12-14T05:31:18;7.39;95.20
25945;SHT31;13742;49.306;8.636;2023-12-14T05:32:18;7.39;95.15
25945;SHT31;13742;49.306;8.636;2023-12-14T05:33:18;7.38;95.14
25945;SHT31;13742;49.306;8.636;2023-12-14T05:34:18;7.39;95.15
25945;SHT31;13742;49.306;8.636;2023-12-14T05:35:18;7.39;95.14
25945;SHT31;13742;49.306;8.636;2023-12-14T05:36:18;7.35;95.04
25945;SHT31;13742;49.306;8.636;2023-12-14T05:37:18;7.35;95.01
25945;SHT31;13742;49.306;8.636;2023-12-14T05:38:18;7.38;95.10
25945;SHT31;13742;49.306;8.636;2023-12-14T05:39:18;7.37;95.15
25945;SHT31;13742;49.306;8.636;2023-12-14T05:40:18;7.32;95.13
25945;SHT31;13742;49.306;8.636;2023-12-14T05:41:18;7.35;95.22
25945;SHT31;13742;49.306;8.636;2023-12-14T05:42:18;7.37;95.22
25945;SHT31;13742;49.306;8.636;2023-12-14T05:43:18;7.35;95.18
25945;SHT31;13742;49.306;8.636;2023-12-14T05:44:18;7.32;95.20
25945;SHT31;13742;49.306;8.636;2023-12-14T05:45:21;7.35;95.20
25945;SHT31;13742;49.306;8.636;2023-12-14T05:46:22;7.35;95.20
25945;SHT31;13742;49.306;8.636;2023-12-14T05:47:18;7.37;95.18
25945;SHT31;13742;49.306;8.636;2023-12-14T05:48:18;7.35;95.15
25945;SHT31;13742;49.306;8.636;2023-12-14T05:49:18;7.35;95.18
25945;SHT31;13742;49.306;8.636;2023-12-14T05:50:18;7.35;95.18
25945;SHT31;13742;49.306;8.636;2023-12-14T05:51:26;7.37;95.23
25945;SHT31;13742;49.306;8.636;2023-12-14T05:52:18;7.37;95.36
25945;SHT31;13742;49.306;8.636;2023-12-14T05:53:18;7.37;95.32
25945;SHT31;13742;49.306;8.636;2023-12-14T05:54:18;7.38;95.33
25945;SHT31;13742;49.306;8.636;2023-12-14T05:55:21;7.37;95.44
25945;SHT31;13742;49.306;8.636;2023-12-14T05:56:18;7.37;95.43
25945;SHT31;13742;49.306;8.636;2023-12-14T05:57:18;7.30;95.42
25945;SHT31;13742;49.306;8.636;2023-12-14T05:58:18;7.27;95.44
25945;SHT31;13742;49.306;8.636;2023-12-14T05:59:18;7.31;95.76
25945;SHT31;13742;49.306;8.636;2023-12-14T06:00:18;7.31;95.68
25945;SHT31;13742;49.306;8.636;2023-12-14T06:01:18;7.31;95.72
25945;SHT31;13742;49.306;8.636;2023-12-14T06:02:18;7.31;95.81
25945;SHT31;13742;49.306;8.636;2023-12-14T06:03:18;7.30;95.83
25945;SHT31;13742;49.306;8.636;2023-12-14T06:04:18;7.30;95.79
25945;SHT31;13742;49.306;8.636;2023-12-14T06:05:18;7.31;95.74
25945;SHT31;13742;49.306;8.636;2023-12-14T06:06:18;7.31;95.72
25945;SHT31;13742;49.306;8.636;2023-12-14T06:07:18;7.28;95.50
25945;SHT31;13742;49.306;8.636;2023-12-14T06:08:18;7.27;95.43
25945;SHT31;13742;49.306;8.636;2023-12-14T06:09:21;7.27;95.63
25945;SHT31;13742;49.306;8.636;2023-12-14T06:10:18;7.27;95.70
25945;SHT31;13742;49.306;8.636;2023-12-14T06:11:18;7.27;95.64
25945;SHT31;13742;49.306;8.636;2023-12-14T06:12:18;7.28;95.66
25945;SHT31;13742;49.306;8.636;2023-12-14T06:13:18;7.24;95.62
25945;SHT31;13742;49.306;8.636;2023-12-14T06:14:18;7.28;95.55
25945;SHT31;13742;49.306;8.636;2023-12-14T06:15:18;7.28;95.53
25945;SHT31;13742;49.306;8.636;2023-12-14T06:16:18;7.27;95.52
25945;SHT31;13742;49.306;8.636;2023-12-14T06:17:18;7.28;95.52
25945;SHT31;13742;49.306;8.636;2023-12-14T06:18:18;7.25;95.62
25945;SHT31;13742;49.306;8.636;2023-12-14T06:19:18;7.25;95.65
25945;SHT31;13742;49.306;8.636;2023-12-14T06:20:18;7.25;95.62
25945;SHT31;13742;49.306;8.636;2023-12-14T06:21:17;7.25;95.66
25945;SHT31;13742;49.306;8.636;2023-12-14T06:22:18;7.23;95.56
25945;SHT31;13742;49.306;8.636;2023-12-14T06:23:18;7.27;95.67
25945;SHT31;13742;49.306;8.636;2023-12-14T06:24:18;7.27;95.85
25945;SHT31;13742;49.306;8.636;2023-12-14T06:25:17;7.28;95.76